Time;durP1;ratioP1;P1;durP2;ratioP2;P2;SDS_P1;SDS_P2;PMS_P1;PMS_P2;Temp;Humidity;BMP_temperature;BMP_pressure;BME280_temperature;BME280_humidity;BME280_pressure;Samples;Min_cycle;Max_cycle;Signal;HPM_P1;HPM_P2
2024/01/17 00:00:04;;;;;;;3.50;2.65;;;;;;;;;;5017512;28;20060;-85
2024/01/17 00:02:29;;;;;;;1.55;1.45;;;;;;;;;;5022064;28;20022;-85
2024/01/17 00:04:54;;;;;;;2.53;1.98;;;;;;;;;;5031293;28;20420;-88
2024/01/17 00:07:20;;;;;;;2.40;2.03;;;;;;;;;;5026590;28;20033;-84
2024/01/17 00:09:47;;;;;;;3.58;2.53;;;;;;;;;;5020278;28;20029;-87
2024/01/17 00:12:12;;;;;;;2.53;2.33;;;;;;;;;;5019087;28;20032;-87
2024/01/17 00:14:38;;;;;;;1.63;1.52;;;;;;;;;;5023629;28;20022;-83
2024/01/17 00:17:03;;;;;;;5.85;2.75;;;;;;;;;;5024140;28;20033;-85
2024/01/17 00:19:30;;;;;;;10.65;2.10;;;;;;;;;;5024246;28;20116;-88
2024/01/17 00:21:56;;;;;;;5.93;4.13;;;;;;;;;;5023911;28;20097;-89
2024/01/17 00:24:21;;;;;;;5.22;2.45;;;;;;;;;;5015471;28;20048;-87
2024/01/17 00:26:47;;;;;;;2.05;1.88;;;;;;;;;;5022751;28;20034;-84
2024/01/17 00:29:12;;;;;;;4.07;3.10;;;;;;;;;;5017769;28;20029;-85
2024/01/17 00:31:38;;;;;;;2.30;1.70;;;;;;;;;;5013102;28;20093;-88
2024/01/17 00:34:03;;;;;;;3.00;2.35;;;;;;;;;;5018273;28;20093;-86
2024/01/17 00:36:28;;;;;;;3.22;2.35;;;;;;;;;;5017992;28;20032;-90
2024/01/17 00:38:54;;;;;;;2.65;2.45;;;;;;;;;;5015871;28;20037;-87
2024/01/17 00:41:19;;;;;;;2.75;2.55;;;;;;;;;;5014317;28;20041;-85
2024/01/17 00:43:45;;;;;;;2.15;2.03;;;;;;;;;;5017359;28;20034;-87
2024/01/17 00:46:10;;;;;;;3.03;1.98;;;;;;;;;;5028610;28;20089;-86
2024/01/17 00:48:36;;;;;;;2.25;2.05;;;;;;;;;;5024140;28;20080;-85
2024/01/17 00:51:01;;;;;;;3.92;2.65;;;;;;;;;;5023242;28;20096;-90
2024/01/17 00:53:26;;;;;;;2.97;2.58;;;;;;;;;;5029972;28;20052;-85
2024/01/17 00:55:52;;;;;;;4.05;1.85;;;;;;;;;;5036883;28;20097;-87
2024/01/17 00:58:18;;;;;;;3.42;1.92;;;;;;;;;;5039093;28;20064;-86
2024/01/17 01:00:43;;;;;;;4.60;2.38;;;;;;;;;;5042628;28;20104;-83
2024/01/17 01:03:08;;;;;;;2.22;1.85;;;;;;;;;;5041327;28;20032;-84
2024/01/17 01:05:34;;;;;;;2.47;2.35;;;;;;;;;;5043412;28;20026;-85
2024/01/17 01:07:59;;;;;;;3.25;2.95;;;;;;;;;;5042758;28;20053;-85
2024/01/17 01:10:24;;;;;;;2.20;1.65;;;;;;;;;;5038423;28;20037;-85
2024/01/17 01:12:50;;;;;;;3.08;2.03;;;;;;;;;;5040059;28;20064;-85
2024/01/17 01:15:15;;;;;;;6.40;2.40;;;;;;;;;;5046316;28;20044;-90
2024/01/17 01:17:40;;;;;;;2.33;2.13;;;;;;;;;;5044287;28;20033;-86
2024/01/17 01:20:07;;;;;;;2.70;2.47;;;;;;;;;;5029461;28;20025;-85
2024/01/17 01:22:33;;;;;;;11.00;2.83;;;;;;;;;;5043827;28;20028;-87
2024/01/17 01:24:58;;;;;;;2.58;2.38;;;;;;;;;;5046857;28;20025;-86
2024/01/17 01:27:24;;;;;;;6.60;2.45;;;;;;;;;;5028887;28;20081;-84
2024/01/17 01:29:49;;;;;;;2.22;2.08;;;;;;;;;;5029921;28;20059;-83
2024/01/17 01:32:14;;;;;;;4.88;3.17;;;;;;;;;;5033682;28;20021;-85
2024/01/17 01:34:39;;;;;;;2.05;1.90;;;;;;;;;;5027719;28;20479;-87
2024/01/17 01:37:05;;;;;;;11.10;3.67;;;;;;;;;;5030506;28;20022;-84
2024/01/17 01:39:30;;;;;;;4.32;3.03;;;;;;;;;;5022846;28;20017;-84
2024/01/17 01:41:56;;;;;;;3.25;2.15;;;;;;;;;;5024981;28;20033;-84
2024/01/17 01:44:21;;;;;;;5.18;2.33;;;;;;;;;;5033165;28;20017;-85
2024/01/17 01:46:47;;;;;;;3.72;2.85;;;;;;;;;;5034404;28;20026;-87
2024/01/17 01:49:14;;;;;;;3.05;2.70;;;;;;;;;;5027377;28;20029;-91
2024/01/17 01:51:43;;;;;;;7.95;2.90;;;;;;;;;;5027830;28;20022;-84
2024/01/17 01:54:10;;;;;;;5.15;3.13;;;;;;;;;;5032577;28;20027;-84
2024/01/17 01:56:37;;;;;;;3.90;2.75;;;;;;;;;;5040735;28;20066;-85
2024/01/17 01:59:02;;;;;;;5.07;2.72;;;;;;;;;;5042255;28;20120;-84
2024/01/17 02:01:29;;;;;;;3.05;2.78;;;;;;;;;;5037311;28;20029;-84
2024/01/17 02:03:56;;;;;;;5.22;3.72;;;;;;;;;;5036035;28;20025;-85
2024/01/17 02:06:23;;;;;;;1.52;1.48;;;;;;;;;;5047359;28;20026;-86
2024/01/17 02:08:51;;;;;;;2.58;2.38;;;;;;;;;;5055944;28;20025;-88
2024/01/17 02:11:18;;;;;;;3.13;2.78;;;;;;;;;;5057744;28;20040;-90
2024/01/17 02:13:44;;;;;;;4.07;2.63;;;;;;;;;;5028405;28;20034;-85
2024/01/17 02:16:10;;;;;;;2.85;2.47;;;;;;;;;;5041283;28;20055;-84
2024/01/17 02:18:35;;;;;;;3.95;3.35;;;;;;;;;;5042647;28;20033;-86
2024/01/17 02:21:01;;;;;;;6.05;2.25;;;;;;;;;;5039388;28;20068;-84
2024/01/17 02:23:30;;;;;;;6.57;2.60;;;;;;;;;;5037106;28;20034;-84
2024/01/17 02:25:57;;;;;;;2.72;2.53;;;;;;;;;;5019250;28;20088;-85
2024/01/17 02:28:26;;;;;;;2.13;1.92;;;;;;;;;;5025077;28;20157;-85
2024/01/17 02:30:51;;;;;;;2.67;2.13;;;;;;;;;;5041234;28;20498;-86
2024/01/17 02:33:18;;;;;;;3.03;2.45;;;;;;;;;;5040182;28;20251;-87
2024/01/17 02:35:44;;;;;;;3.13;2.85;;;;;;;;;;5035698;28;20041;-87
2024/01/17 02:38:10;;;;;;;2.92;2.17;;;;;;;;;;5040432;28;20040;-86
2024/01/17 02:40:35;;;;;;;2.90;2.42;;;;;;;;;;5042629;28;20052;-86
2024/01/17 02:43:00;;;;;;;7.38;3.40;;;;;;;;;;5028694;28;20415;-83
2024/01/17 02:45:26;;;;;;;9.80;2.83;;;;;;;;;;5027307;28;20174;-84
2024/01/17 02:47:51;;;;;;;4.57;2.35;;;;;;;;;;5016785;28;20163;-83
2024/01/17 02:50:17;;;;;;;2.38;2.17;;;;;;;;;;5017343;28;20041;-84
2024/01/17 02:52:45;;;;;;;6.47;2.53;;;;;;;;;;5016329;28;20030;-85
2024/01/17 02:55:12;;;;;;;3.55;3.25;;;;;;;;;;5016271;28;20021;-84
2024/01/17 02:57:38;;;;;;;3.13;2.60;;;;;;;;;;5028017;28;20045;-85
2024/01/17 03:00:09;;;;;;;4.43;3.10;;;;;;;;;;5036141;28;20148;-84
2024/01/17 03:02:37;;;;;;;2.33;2.05;;;;;;;;;;5016714;28;20105;-84
2024/01/17 03:05:03;;;;;;;10.32;3.85;;;;;;;;;;5021106;28;20021;-86
2024/01/17 03:07:29;;;;;;;4.60;3.20;;;;;;;;;;5033611;28;20030;-85
2024/01/17 03:09:55;;;;;;;7.25;2.83;;;;;;;;;;5021482;28;20040;-84
2024/01/17 03:12:20;;;;;;;5.65;3.53;;;;;;;;;;5027253;28;20049;-84
2024/01/17 03:14:46;;;;;;;2.40;1.77;;;;;;;;;;5015658;28;20022;-86
2024/01/17 03:17:12;;;;;;;5.55;2.95;;;;;;;;;;5032079;28;20498;-85
2024/01/17 03:19:38;;;;;;;2.42;2.22;;;;;;;;;;5036012;28;20029;-85
2024/01/17 03:22:03;;;;;;;6.30;2.85;;;;;;;;;;5036267;28;20029;-83
2024/01/17 03:24:29;;;;;;;9.00;4.43;;;;;;;;;;5036431;28;20025;-86
2024/01/17 03:26:54;;;;;;;5.35;2.22;;;;;;;;;;5036006;28;20021;-83
2024/01/17 03:29:19;;;;;;;4.70;3.05;;;;;;;;;;5037620;28;20040;-84
2024/01/17 03:31:46;;;;;;;5.18;3.35;;;;;;;;;;5028421;28;20021;-85
2024/01/17 03:34:11;;;;;;;3.55;2.90;;;;;;;;;;5016977;28;20525;-83
2024/01/17 03:36:37;;;;;;;3.22;2.63;;;;;;;;;;5024822;28;20069;-85
2024/01/17 03:39:02;;;;;;;7.63;3.20;;;;;;;;;;5016177;28;20434;-83
2024/01/17 03:41:28;;;;;;;7.32;3.10;;;;;;;;;;5027020;28;20108;-83
2024/01/17 03:43:53;;;;;;;3.47;2.63;;;;;;;;;;5032232;28;20018;-85
2024/01/17 03:46:18;;;;;;;2.88;2.20;;;;;;;;;;5015431;28;20033;-83
2024/01/17 03:48:44;;;;;;;3.72;3.08;;;;;;;;;;5030729;28;20032;-83
2024/01/17 03:51:09;;;;;;;2.85;2.65;;;;;;;;;;5030978;28;20586;-86
2024/01/17 03:53:35;;;;;;;5.97;2.78;;;;;;;;;;5027835;28;20029;-84
2024/01/17 03:56:00;;;;;;;2.08;1.92;;;;;;;;;;5031175;28;20018;-85
2024/01/17 03:58:25;;;;;;;4.07;3.15;;;;;;;;;;5033065;28;20476;-84
2024/01/17 04:00:51;;;;;;;7.65;2.88;;;;;;;;;;5018544;28;20026;-87
2024/01/17 04:03:17;;;;;;;5.70;2.80;;;;;;;;;;5016607;28;20037;-84
2024/01/17 04:05:43;;;;;;;5.60;3.10;;;;;;;;;;5040746;28;20010;-87
2024/01/17 04:08:09;;;;;;;2.85;2.65;;;;;;;;;;5028553;28;20087;-84
2024/01/17 04:10:34;;;;;;;4.43;4.00;;;;;;;;;;5026088;28;20025;-84
2024/01/17 04:13:00;;;;;;;11.48;3.28;;;;;;;;;;5015486;28;20029;-85
2024/01/17 04:15:26;;;;;;;5.13;2.60;;;;;;;;;;5015095;28;20014;-86
2024/01/17 04:17:51;;;;;;;5.20;3.05;;;;;;;;;;5017090;28;20110;-84
2024/01/17 04:20:16;;;;;;;5.47;3.88;;;;;;;;;;5015039;28;20569;-87
2024/01/17 04:22:42;;;;;;;4.28;2.42;;;;;;;;;;5016704;28;20049;-86
2024/01/17 04:25:07;;;;;;;4.60;2.90;;;;;;;;;;5031784;28;20033;-85
2024/01/17 04:27:33;;;;;;;2.95;2.53;;;;;;;;;;5034827;28;20030;-84
2024/01/17 04:29:58;;;;;;;3.80;3.22;;;;;;;;;;5034525;28;20044;-86
2024/01/17 04:32:24;;;;;;;3.08;2.83;;;;;;;;;;5033326;28;20458;-83
2024/01/17 04:34:49;;;;;;;2.63;2.33;;;;;;;;;;5034530;28;20520;-83
2024/01/17 04:37:15;;;;;;;5.28;3.03;;;;;;;;;;5037546;28;20029;-85
2024/01/17 04:39:41;;;;;;;3.75;2.65;;;;;;;;;;5040672;28;20025;-86
2024/01/17 04:42:06;;;;;;;2.97;2.78;;;;;;;;;;5026942;28;20523;-86
2024/01/17 04:44:32;;;;;;;5.63;3.67;;;;;;;;;;5021482;28;20022;-83
2024/01/17 04:46:58;;;;;;;10.45;3.30;;;;;;;;;;5021421;28;20032;-83
2024/01/17 04:49:27;;;;;;;11.60;3.83;;;;;;;;;;5029238;28;20049;-89
2024/01/17 04:51:54;;;;;;;5.10;3.55;;;;;;;;;;5027047;28;20037;-84
2024/01/17 04:54:23;;;;;;;10.32;4.57;;;;;;;;;;5021518;28;20021;-84
2024/01/17 04:56:49;;;;;;;7.18;3.13;;;;;;;;;;5019930;28;20097;-85
2024/01/17 04:59:14;;;;;;;7.45;4.00;;;;;;;;;;5026222;28;20565;-87
2024/01/17 05:01:40;;;;;;;6.35;3.75;;;;;;;;;;5026170;28;20025;-83
2024/01/17 05:04:05;;;;;;;4.15;2.97;;;;;;;;;;5029583;28;20104;-83
2024/01/17 05:06:32;;;;;;;11.00;4.03;;;;;;;;;;5024455;28;20052;-86
2024/01/17 05:08:59;;;;;;;5.15;3.42;;;;;;;;;;5026263;28;20033;-83
2024/01/17 05:11:25;;;;;;;5.90;3.67;;;;;;;;;;5019081;28;20037;-83
2024/01/17 05:13:50;;;;;;;9.02;2.78;;;;;;;;;;5020837;28;20066;-84
2024/01/17 05:16:16;;;;;;;3.25;2.95;;;;;;;;;;5019255;28;20033;-85
2024/01/17 05:18:41;;;;;;;2.55;2.28;;;;;;;;;;5018795;28;20029;-85
2024/01/17 05:21:07;;;;;;;5.95;4.50;;;;;;;;;;5018947;28;20060;-83
2024/01/17 05:23:32;;;;;;;3.83;2.90;;;;;;;;;;5020469;28;20033;-85
2024/01/17 05:25:57;;;;;;;11.38;4.68;;;;;;;;;;5017155;28;20072;-85
2024/01/17 05:28:23;;;;;;;7.53;3.08;;;;;;;;;;5017869;28;20034;-85
2024/01/17 05:30:48;;;;;;;3.95;3.55;;;;;;;;;;5017626;28;20030;-85
2024/01/17 05:33:13;;;;;;;3.97;3.10;;;;;;;;;;5017973;28;20032;-85
2024/01/17 05:35:39;;;;;;;3.25;2.10;;;;;;;;;;5020528;28;20017;-87
2024/01/17 05:38:05;;;;;;;3.50;2.80;;;;;;;;;;5020217;28;20101;-85
2024/01/17 05:40:31;;;;;;;6.55;3.92;;;;;;;;;;5019292;28;20033;-86
2024/01/17 05:42:57;;;;;;;7.40;3.45;;;;;;;;;;5031710;28;20030;-86
2024/01/17 05:45:22;;;;;;;2.38;2.17;;;;;;;;;;5038814;28;20103;-86
2024/01/17 05:47:47;;;;;;;5.35;3.40;;;;;;;;;;5031094;28;20113;-87
2024/01/17 05:50:13;;;;;;;4.22;2.47;;;;;;;;;;5040353;28;20522;-86
2024/01/17 05:52:39;;;;;;;3.17;2.88;;;;;;;;;;5039272;28;20029;-87
2024/01/17 05:55:09;;;;;;;6.45;3.08;;;;;;;;;;5038732;28;20104;-86
2024/01/17 05:57:35;;;;;;;6.25;3.58;;;;;;;;;;5039040;28;20133;-86
2024/01/17 06:00:00;;;;;;;2.90;2.65;;;;;;;;;;5038635;28;20057;-87
2024/01/17 06:02:26;;;;;;;5.45;3.90;;;;;;;;;;5039213;28;20032;-85
2024/01/17 06:04:51;;;;;;;4.43;2.50;;;;;;;;;;5039874;28;20395;-87
2024/01/17 06:07:16;;;;;;;3.47;2.60;;;;;;;;;;5028078;28;20637;-87
2024/01/17 06:09:43;;;;;;;5.32;3.60;;;;;;;;;;5028563;28;20120;-86
2024/01/17 06:12:11;;;;;;;5.53;4.10;;;;;;;;;;5030086;28;20045;-88
2024/01/17 06:14:37;;;;;;;4.85;3.80;;;;;;;;;;5016150;28;20018;-87
2024/01/17 06:17:02;;;;;;;4.93;3.63;;;;;;;;;;5016195;28;20026;-87
2024/01/17 06:19:28;;;;;;;4.03;2.97;;;;;;;;;;5015900;28;20087;-86
2024/01/17 06:21:53;;;;;;;4.53;3.20;;;;;;;;;;5018068;28;20034;-85
2024/01/17 06:24:18;;;;;;;5.43;3.58;;;;;;;;;;5017597;28;20018;-85
2024/01/17 06:26:44;;;;;;;2.70;2.42;;;;;;;;;;5026535;28;20048;-87
2024/01/17 06:29:10;;;;;;;4.13;3.53;;;;;;;;;;5035827;28;20073;-88
2024/01/17 06:31:36;;;;;;;3.58;2.90;;;;;;;;;;5035382;28;20033;-85
2024/01/17 06:34:01;;;;;;;5.47;3.55;;;;;;;;;;5036498;28;20033;-86
2024/01/17 06:36:26;;;;;;;4.05;3.38;;;;;;;;;;5036218;28;20036;-87
2024/01/17 06:38:52;;;;;;;5.13;2.95;;;;;;;;;;5036329;28;20817;-86
2024/01/17 06:41:18;;;;;;;3.25;2.38;;;;;;;;;;5037006;28;20029;-86
2024/01/17 06:43:44;;;;;;;9.98;4.10;;;;;;;;;;5025835;28;20026;-87
2024/01/17 06:46:10;;;;;;;8.48;5.10;;;;;;;;;;5033122;28;20055;-85
2024/01/17 06:48:35;;;;;;;10.43;3.90;;;;;;;;;;5017855;28;20021;-86
2024/01/17 06:51:01;;;;;;;8.10;3.78;;;;;;;;;;5025382;28;20056;-88
2024/01/17 06:53:27;;;;;;;6.80;3.85;;;;;;;;;;5016928;28;20022;-86
2024/01/17 06:55:52;;;;;;;4.65;3.75;;;;;;;;;;5015623;28;20109;-88
2024/01/17 06:58:18;;;;;;;9.32;4.22;;;;;;;;;;5014938;28;20087;-86
2024/01/17 07:00:44;;;;;;;7.90;4.50;;;;;;;;;;5024634;28;20099;-85
2024/01/17 07:03:10;;;;;;;7.13;4.25;;;;;;;;;;5022888;28;20017;-85
2024/01/17 07:05:36;;;;;;;4.88;2.95;;;;;;;;;;5015201;28;20168;-86
2024/01/17 07:08:01;;;;;;;4.50;3.63;;;;;;;;;;5023940;28;20030;-86
2024/01/17 07:10:27;;;;;;;10.50;4.25;;;;;;;;;;5015843;28;20032;-90
2024/01/17 07:12:52;;;;;;;5.28;3.40;;;;;;;;;;5018905;28;20034;-86
2024/01/17 07:15:17;;;;;;;5.38;3.65;;;;;;;;;;5018234;28;20127;-88
2024/01/17 07:17:43;;;;;;;6.78;4.10;;;;;;;;;;5024293;28;20465;-89
2024/01/17 07:20:10;;;;;;;7.28;4.60;;;;;;;;;;5035466;28;20079;-85
2024/01/17 07:22:41;;;;;;;7.45;4.13;;;;;;;;;;5035159;28;20025;-87
2024/01/17 07:25:10;;;;;;;3.90;3.10;;;;;;;;;;5035735;28;20124;-87
2024/01/17 07:27:35;;;;;;;6.45;4.07;;;;;;;;;;5029033;28;20026;-87
2024/01/17 07:30:01;;;;;;;8.10;4.70;;;;;;;;;;5023915;28;20044;-86
2024/01/17 07:32:26;;;;;;;6.20;4.43;;;;;;;;;;5021229;28;20030;-88
2024/01/17 07:34:52;;;;;;;6.32;3.65;;;;;;;;;;5015061;28;20041;-87
2024/01/17 07:37:18;;;;;;;4.75;3.97;;;;;;;;;;5024275;28;20033;-86
2024/01/17 07:39:43;;;;;;;6.05;4.00;;;;;;;;;;5034449;28;20033;-88
2024/01/17 07:42:09;;;;;;;5.70;4.25;;;;;;;;;;5036913;28;20045;-88
2024/01/17 07:44:34;;;;;;;6.78;3.60;;;;;;;;;;5035579;28;20021;-87
2024/01/17 07:47:00;;;;;;;5.07;3.83;;;;;;;;;;5035343;28;20025;-86
2024/01/17 07:49:25;;;;;;;4.55;3.67;;;;;;;;;;5035890;28;20371;-87
2024/01/17 07:51:50;;;;;;;16.48;4.43;;;;;;;;;;5036216;28;20017;-87
2024/01/17 07:54:17;;;;;;;6.30;4.72;;;;;;;;;;5025421;28;20392;-86
2024/01/17 07:56:43;;;;;;;16.50;4.57;;;;;;;;;;5024146;28;20029;-86
2024/01/17 07:59:08;;;;;;;4.78;3.05;;;;;;;;;;5035518;28;20099;-87
2024/01/17 08:01:34;;;;;;;8.27;4.00;;;;;;;;;;5036172;28;20057;-87
2024/01/17 08:03:59;;;;;;;5.63;3.80;;;;;;;;;;5036967;28;20030;-86
2024/01/17 08:06:25;;;;;;;7.05;4.18;;;;;;;;;;5021779;28;20085;-87
2024/01/17 08:08:50;;;;;;;7.97;4.30;;;;;;;;;;5034717;28;20028;-87
2024/01/17 08:11:15;;;;;;;7.00;3.70;;;;;;;;;;5025701;28;20022;-85
2024/01/17 08:13:41;;;;;;;5.38;3.90;;;;;;;;;;5019246;28;20028;-85
2024/01/17 08:16:06;;;;;;;4.43;3.28;;;;;;;;;;5037910;28;20514;-87
2024/01/17 08:18:31;;;;;;;12.35;4.53;;;;;;;;;;5041581;28;20027;-88
2024/01/17 08:20:57;;;;;;;11.43;3.70;;;;;;;;;;5045930;28;20044;-86
2024/01/17 08:23:22;;;;;;;8.77;4.88;;;;;;;;;;5029336;28;20057;-86
2024/01/17 08:25:48;;;;;;;4.97;3.40;;;;;;;;;;5036675;28;20021;-87
2024/01/17 08:28:13;;;;;;;5.28;3.97;;;;;;;;;;5031990;28;20507;-86
2024/01/17 08:30:39;;;;;;;6.90;3.53;;;;;;;;;;5023725;28;20149;-87
2024/01/17 08:33:04;;;;;;;5.82;3.75;;;;;;;;;;5014121;28;20044;-87
2024/01/17 08:35:30;;;;;;;6.75;3.95;;;;;;;;;;5032604;28;20113;-87
2024/01/17 08:37:55;;;;;;;5.35;3.53;;;;;;;;;;5027853;28;20034;-87
2024/01/17 08:40:21;;;;;;;6.90;4.63;;;;;;;;;;5033672;28;20021;-87
2024/01/17 08:42:46;;;;;;;6.43;4.22;;;;;;;;;;5027035;28;20030;-86
2024/01/17 08:45:12;;;;;;;8.77;3.55;;;;;;;;;;5025996;28;20411;-86
2024/01/17 08:47:38;;;;;;;6.70;4.85;;;;;;;;;;5033567;28;20044;-86
2024/01/17 08:50:03;;;;;;;6.55;4.28;;;;;;;;;;5030924;28;20534;-86
2024/01/17 08:52:29;;;;;;;8.38;5.20;;;;;;;;;;5022384;28;20030;-87
2024/01/17 08:54:54;;;;;;;9.40;5.38;;;;;;;;;;5026186;28;20545;-86
2024/01/17 08:57:20;;;;;;;7.00;4.30;;;;;;;;;;5034834;28;20037;-87
2024/01/17 08:59:45;;;;;;;20.73;4.38;;;;;;;;;;5033728;28;20032;-87
2024/01/17 09:02:11;;;;;;;7.20;4.38;;;;;;;;;;5035555;28;20479;-87
2024/01/17 09:04:36;;;;;;;9.48;4.68;;;;;;;;;;5034311;28;20024;-88
2024/01/17 09:07:01;;;;;;;8.20;5.38;;;;;;;;;;5033555;28;20025;-87
2024/01/17 09:09:27;;;;;;;10.90;4.93;;;;;;;;;;5033292;28;20026;-87
2024/01/17 09:11:53;;;;;;;7.90;4.90;;;;;;;;;;5034035;28;20071;-87
2024/01/17 09:14:21;;;;;;;6.07;3.88;;;;;;;;;;5036043;28;20147;-89
2024/01/17 09:16:53;;;;;;;6.63;3.85;;;;;;;;;;5021657;28;20029;-87
2024/01/17 09:19:20;;;;;;;7.10;5.57;;;;;;;;;;5014556;28;20049;-87
2024/01/17 09:21:47;;;;;;;8.43;4.75;;;;;;;;;;5016098;28;20038;-86
2024/01/17 09:24:12;;;;;;;7.18;4.82;;;;;;;;;;5018001;28;20022;-88
2024/01/17 09:26:37;;;;;;;9.98;4.70;;;;;;;;;;5036977;28;20633;-87
2024/01/17 09:29:03;;;;;;;8.27;4.20;;;;;;;;;;5039422;28;20088;-89
2024/01/17 09:35:44;;;;;;;7.32;3.35;;;;;;;;;;5032527;28;20055;-88
2024/01/17 09:38:11;;;;;;;9.50;4.55;;;;;;;;;;5009627;28;20073;-87
2024/01/17 09:40:37;;;;;;;9.48;5.13;;;;;;;;;;5015296;28;20344;-88
2024/01/17 09:43:04;;;;;;;11.18;4.18;;;;;;;;;;4998518;28;20504;-88
2024/01/17 09:45:30;;;;;;;5.55;3.90;;;;;;;;;;5000616;28;20053;-88
2024/01/17 09:47:56;;;;;;;5.93;3.63;;;;;;;;;;5016030;28;20052;-86
2024/01/17 09:50:21;;;;;;;5.63;4.05;;;;;;;;;;5017560;28;20373;-88
2024/01/17 09:52:48;;;;;;;5.85;3.30;;;;;;;;;;5014047;28;20034;-89
2024/01/17 09:55:15;;;;;;;5.68;3.28;;;;;;;;;;5006910;28;20053;-86
2024/01/17 09:57:47;;;;;;;9.95;4.78;;;;;;;;;;4996108;28;20121;-86
2024/01/17 10:00:13;;;;;;;5.68;3.65;;;;;;;;;;4997045;28;20053;-87
2024/01/17 10:02:39;;;;;;;8.88;5.05;;;;;;;;;;5012086;28;20491;-87
2024/01/17 10:05:08;;;;;;;6.13;3.63;;;;;;;;;;5020057;28;20129;-89
2024/01/17 10:07:33;;;;;;;6.82;3.42;;;;;;;;;;5020140;28;20029;-89
2024/01/17 10:09:59;;;;;;;5.30;3.92;;;;;;;;;;5021376;28;20037;-88
2024/01/17 10:12:25;;;;;;;3.78;3.17;;;;;;;;;;5020139;28;20424;-88
2024/01/17 10:14:53;;;;;;;5.50;3.67;;;;;;;;;;5018785;28;20014;-87
2024/01/17 10:17:22;;;;;;;3.97;3.15;;;;;;;;;;5013516;28;20102;-88
2024/01/17 10:19:59;;;;;;;8.68;5.80;;;;;;;;;;5015375;28;20056;-88
2024/01/17 10:22:31;;;;;;;6.10;4.63;;;;;;;;;;5013088;28;20022;-88
2024/01/17 10:24:59;;;;;;;12.05;3.83;;;;;;;;;;5015749;28;20121;-87
2024/01/17 10:27:26;;;;;;;5.85;3.55;;;;;;;;;;5016447;28;20034;-88
2024/01/17 10:29:52;;;;;;;4.82;3.33;;;;;;;;;;5015300;28;20022;-87
2024/01/17 10:32:17;;;;;;;7.78;4.07;;;;;;;;;;5012244;28;20029;-89
2024/01/17 10:34:43;;;;;;;8.02;3.55;;;;;;;;;;5015139;28;20025;-87
2024/01/17 10:37:11;;;;;;;4.93;3.88;;;;;;;;;;5015813;28;20037;-87
2024/01/17 10:39:44;;;;;;;8.68;3.97;;;;;;;;;;5014974;28;20030;-88
2024/01/17 10:43:01;;;;;;;;;;;;;;;;;;;;;
2024/01/17 10:45:37;;;;;;;4.53;3.83;;;;;;;;;;4988154;28;20112;-86
2024/01/17 10:48:05;;;;;;;8.18;4.60;;;;;;;;;;5012643;28;20037;-88
2024/01/17 10:50:31;;;;;;;6.75;4.03;;;;;;;;;;5018136;28;20124;-88
2024/01/17 10:53:04;;;;;;;4.55;3.30;;;;;;;;;;5017184;28;20064;-87
2024/01/17 10:55:34;;;;;;;6.18;3.95;;;;;;;;;;5016050;28;20018;-88
2024/01/17 10:58:07;;;;;;;5.15;3.80;;;;;;;;;;5018718;28;20026;-88
2024/01/17 11:00:35;;;;;;;4.90;3.17;;;;;;;;;;5021181;28;20584;-87
2024/01/17 11:03:08;;;;;;;4.40;3.35;;;;;;;;;;5017460;28;20034;-87
2024/01/17 11:05:46;;;;;;;4.45;3.38;;;;;;;;;;5015661;28;20028;-88
2024/01/17 11:08:13;;;;;;;5.75;2.75;;;;;;;;;;5006397;28;20025;-87
2024/01/17 11:10:40;;;;;;;9.13;4.10;;;;;;;;;;5011327;28;20055;-87
2024/01/17 11:13:06;;;;;;;6.40;3.70;;;;;;;;;;5019320;28;20018;-87
2024/01/17 11:15:32;;;;;;;7.80;3.22;;;;;;;;;;5019213;28;20045;-87
2024/01/17 11:18:00;;;;;;;4.30;3.70;;;;;;;;;;5018508;28;20025;-87
2024/01/17 11:20:25;;;;;;;5.57;3.40;;;;;;;;;;5020778;28;20033;-86
2024/01/17 11:22:51;;;;;;;8.55;3.83;;;;;;;;;;5025432;28;20034;-87
2024/01/17 11:25:27;;;;;;;7.43;3.88;;;;;;;;;;5019574;28;20018;-86
2024/01/17 11:28:12;;;;;;;4.60;3.53;;;;;;;;;;5010670;28;20026;-85
2024/01/17 11:31:12;;;;;;;10.77;3.80;;;;;;;;;;5019271;28;20017;-85
2024/01/17 11:33:38;;;;;;;3.72;2.95;;;;;;;;;;5020075;28;20029;-85
2024/01/17 11:36:05;;;;;;;3.47;2.92;;;;;;;;;;5015958;28;20045;-84
2024/01/17 11:38:32;;;;;;;5.43;3.60;;;;;;;;;;5017383;28;20037;-83
2024/01/17 11:40:57;;;;;;;5.82;3.53;;;;;;;;;;5012673;28;20022;-83
2024/01/17 11:43:26;;;;;;;6.38;3.67;;;;;;;;;;5006237;28;20072;-84
2024/01/17 11:45:53;;;;;;;6.47;3.25;;;;;;;;;;5007183;28;20077;-86
2024/01/17 11:48:19;;;;;;;2.58;2.38;;;;;;;;;;5004886;28;20022;-83
2024/01/17 11:51:07;;;;;;;5.07;3.35;;;;;;;;;;5018383;28;20025;-86
2024/01/17 11:53:35;;;;;;;3.85;2.95;;;;;;;;;;5030560;28;20037;-85
2024/01/17 11:56:04;;;;;;;2.05;1.95;;;;;;;;;;5009546;28;20097;-85
2024/01/17 11:58:44;;;;;;;7.57;2.85;;;;;;;;;;5016308;28;20496;-86
2024/01/17 12:01:22;;;;;;;1.92;1.80;;;;;;;;;;5017394;28;20088;-85
2024/01/17 12:03:47;;;;;;;6.43;2.70;;;;;;;;;;5017029;28;20037;-86
2024/01/17 12:06:14;;;;;;;2.75;2.33;;;;;;;;;;5018498;28;20022;-88
2024/01/17 12:08:41;;;;;;;4.25;2.53;;;;;;;;;;5021069;28;20096;-84
2024/01/17 12:11:07;;;;;;;2.42;2.22;;;;;;;;;;5014362;28;20079;-85
2024/01/17 12:13:36;;;;;;;3.78;2.67;;;;;;;;;;5014953;28;20037;-87
2024/01/17 12:16:02;;;;;;;2.70;2.45;;;;;;;;;;5015692;28;20089;-87
2024/01/17 12:18:27;;;;;;;3.10;2.45;;;;;;;;;;5015205;28;20065;-89
2024/01/17 12:21:01;;;;;;;7.30;3.50;;;;;;;;;;5017058;28;20030;-85
2024/01/17 12:23:28;;;;;;;6.18;3.40;;;;;;;;;;5013969;28;20494;-88
2024/01/17 12:25:55;;;;;;;4.47;2.78;;;;;;;;;;5006087;28;20022;-88
2024/01/17 12:28:21;;;;;;;3.08;2.40;;;;;;;;;;5008491;28;20057;-86
2024/01/17 12:31:05;;;;;;;5.97;3.30;;;;;;;;;;5017636;28;20147;-87
2024/01/17 12:33:32;;;;;;;2.72;2.25;;;;;;;;;;5016764;28;20018;-86
2024/01/17 12:36:00;;;;;;;4.63;2.72;;;;;;;;;;5019418;28;20022;-86
2024/01/17 12:38:30;;;;;;;4.25;2.35;;;;;;;;;;5017744;28;20034;-87
2024/01/17 12:40:57;;;;;;;6.05;2.67;;;;;;;;;;5016985;28;20102;-88
2024/01/17 12:43:23;;;;;;;3.22;2.65;;;;;;;;;;5013620;28;20017;-89
2024/01/17 12:45:49;;;;;;;2.45;2.22;;;;;;;;;;5014334;28;20018;-87
2024/01/17 12:48:15;;;;;;;5.32;2.47;;;;;;;;;;5015745;28;20041;-88
2024/01/17 12:50:57;;;;;;;4.95;3.15;;;;;;;;;;5010039;28;20544;-87
2024/01/17 12:53:27;;;;;;;4.43;3.10;;;;;;;;;;5012748;28;20437;-86
2024/01/17 12:55:58;;;;;;;4.38;3.10;;;;;;;;;;5011304;28;20057;-86
2024/01/17 12:58:24;;;;;;;14.73;3.22;;;;;;;;;;5020827;28;20034;-86
2024/01/17 13:00:49;;;;;;;4.28;3.47;;;;;;;;;;5023412;28;20033;-85
2024/01/17 13:03:16;;;;;;;4.80;2.70;;;;;;;;;;5023732;28;20044;-86
2024/01/17 13:05:42;;;;;;;3.40;2.38;;;;;;;;;;5019197;28;20026;-85
2024/01/17 13:08:14;;;;;;;4.65;2.95;;;;;;;;;;5022362;28;20045;-88
2024/01/17 13:10:40;;;;;;;;;;;;;;;;;;5016719;28;20033;-86
2024/01/17 13:13:08;;;;;;;3.08;2.33;;;;;;;;;;5006880;28;19959;-86
2024/01/17 13:15:34;;;;;;;4.18;2.40;;;;;;;;;;5011422;28;20022;-85
2024/01/17 13:18:00;;;;;;;3.67;1.92;;;;;;;;;;5036944;28;20022;-83
2024/01/17 13:20:28;;;;;;;3.30;2.47;;;;;;;;;;5027452;28;20217;-87
2024/01/17 13:22:57;;;;;;;6.65;2.50;;;;;;;;;;5019782;28;20022;-85
2024/01/17 13:25:23;;;;;;;5.35;2.50;;;;;;;;;;5011631;28;20110;-86
2024/01/17 13:27:59;;;;;;;2.90;2.60;;;;;;;;;;5011859;28;20086;-84
2024/01/17 13:30:34;;;;;;;7.07;2.20;;;;;;;;;;5021277;28;20085;-86
2024/01/17 13:32:59;;;;;;;2.70;2.15;;;;;;;;;;5020716;28;20029;-89
2024/01/17 13:35:25;;;;;;;2.90;1.92;;;;;;;;;;5015676;28;20026;-88
2024/01/17 13:37:50;;;;;;;3.42;2.20;;;;;;;;;;5022193;28;20029;-86
2024/01/17 13:40:18;;;;;;;2.03;1.75;;;;;;;;;;5018667;28;20030;-86
2024/01/17 13:42:44;;;;;;;4.35;2.90;;;;;;;;;;5021462;28;20116;-87
2024/01/17 13:45:12;;;;;;;3.55;2.33;;;;;;;;;;5023805;28;20073;-87
2024/01/17 13:47:41;;;;;;;4.50;2.75;;;;;;;;;;5022236;28;20053;-87
2024/01/17 13:50:20;;;;;;;5.03;2.33;;;;;;;;;;5020375;28;20044;-86
2024/01/17 13:52:53;;;;;;;6.22;2.00;;;;;;;;;;5019656;28;20108;-86
2024/01/17 13:55:25;;;;;;;7.47;1.98;;;;;;;;;;5017303;28;20034;-85
2024/01/17 13:57:52;;;;;;;4.13;2.50;;;;;;;;;;5021931;28;20084;-87
2024/01/17 14:00:19;;;;;;;3.88;1.92;;;;;;;;;;5023457;28;20045;-86
2024/01/17 14:02:44;;;;;;;2.08;1.90;;;;;;;;;;5020093;28;20037;-85
2024/01/17 14:05:11;;;;;;;3.55;2.38;;;;;;;;;;5020210;28;20029;-86
2024/01/17 14:07:41;;;;;;;4.38;2.05;;;;;;;;;;5018057;28;20053;-85
2024/01/17 14:10:07;;;;;;;2.83;1.95;;;;;;;;;;5018932;28;20022;-85
2024/01/17 14:12:36;;;;;;;3.17;2.20;;;;;;;;;;5018489;28;20028;-85
2024/01/17 14:15:08;;;;;;;3.88;2.13;;;;;;;;;;5021036;28;20576;-83
2024/01/17 14:17:33;;;;;;;5.95;2.58;;;;;;;;;;5018618;28;20068;-85
2024/01/17 14:20:02;;;;;;;4.82;2.38;;;;;;;;;;5020276;28;20072;-84
2024/01/17 14:22:28;;;;;;;8.00;2.15;;;;;;;;;;5020298;28;20025;-87
2024/01/17 14:24:53;;;;;;;3.70;2.08;;;;;;;;;;5015733;28;20033;-84
2024/01/17 14:27:19;;;;;;;2.55;2.03;;;;;;;;;;5017948;28;20053;-87
2024/01/17 14:29:44;;;;;;;4.10;2.08;;;;;;;;;;5019111;28;20046;-86
2024/01/17 14:32:10;;;;;;;5.35;1.98;;;;;;;;;;5019358;28;20029;-85
2024/01/17 14:34:35;;;;;;;2.60;2.40;;;;;;;;;;5003130;28;20034;-86
2024/01/17 14:37:01;;;;;;;2.53;1.85;;;;;;;;;;5016509;28;20125;-86
2024/01/17 14:39:26;;;;;;;2.50;2.30;;;;;;;;;;5020066;28;20092;-86
2024/01/17 14:41:52;;;;;;;3.67;2.05;;;;;;;;;;5010426;28;20034;-86
2024/01/17 14:44:19;;;;;;;3.55;2.08;;;;;;;;;;5011765;28;20022;-86